sensor_id;sensor_type;location;lat;lon;timestamp;P1;durP1;ratioP1;P2;durP2;ratioP2
70806;SDS011;58882;52.170;5.386;2023-07-09T00:01:22;9.13;;;4.45;;
70806;SDS011;58882;52.170;5.386;2023-07-09T00:04:12;10.43;;;4.70;;
70806;SDS011;58882;52.170;5.386;2023-07-09T00:06:52;10.85;;;5.45;;
70806;SDS011;58882;52.170;5.386;2023-07-09T00:09:39;8.90;;;4.43;;
70806;SDS011;58882;52.170;5.386;2023-07-09T00:12:19;8.75;;;4.25;;
70806;SDS011;58882;52.170;5.386;2023-07-09T00:15:06;12.93;;;4.80;;
70806;SDS011;58882;52.170;5.386;2023-07-09T00:17:49;10.55;;;4.93;;
70806;SDS011;58882;52.170;5.386;2023-07-09T00:20:36;9.20;;;4.72;;
70806;SDS011;58882;52.170;5.386;2023-07-09T00:23:16;8.45;;;4.40;;
70806;SDS011;58882;52.170;5.386;2023-07-09T00:26:12;9.10;;;4.68;;
70806;SDS011;58882;52.170;5.386;2023-07-09T00:28:53;9.70;;;5.15;;
70806;SDS011;58882;52.170;5.386;2023-07-09T00:31:40;9.43;;;4.70;;
70806;SDS011;58882;52.170;5.386;2023-07-09T00:34:20;8.38;;;4.38;;
70806;SDS011;58882;52.170;5.386;2023-07-09T00:37:10;11.75;;;6.30;;
70806;SDS011;58882;52.170;5.386;2023-07-09T00:39:55;9.68;;;4.78;;
70806;SDS011;58882;52.170;5.386;2023-07-09T00:42:43;8.90;;;4.75;;
70806;SDS011;58882;52.170;5.386;2023-07-09T00:45:26;10.40;;;5.50;;
70806;SDS011;58882;52.170;5.386;2023-07-09T00:48:20;10.32;;;5.45;;
70806;SDS011;58882;52.170;5.386;2023-07-09T00:51:19;9.98;;;4.97;;
70806;SDS011;58882;52.170;5.386;2023-07-09T00:54:03;10.32;;;5.38;;
70806;SDS011;58882;52.170;5.386;2023-07-09T00:57:21;11.02;;;5.53;;
70806;SDS011;58882;52.170;5.386;2023-07-09T01:00:01;10.50;;;5.75;;
70806;SDS011;58882;52.170;5.386;2023-07-09T01:02:59;11.20;;;5.57;;
70806;SDS011;58882;52.170;5.386;2023-07-09T01:05:34;11.07;;;5.63;;
70806;SDS011;58882;52.170;5.386;2023-07-09T01:08:31;11.25;;;5.90;;
70806;SDS011;58882;52.170;5.386;2023-07-09T01:11:05;10.55;;;5.75;;
70806;SDS011;58882;52.170;5.386;2023-07-09T01:14:09;10.98;;;5.60;;
70806;SDS011;58882;52.170;5.386;2023-07-09T01:16:47;11.57;;;5.82;;
70806;SDS011;58882;52.170;5.386;2023-07-09T01:20:08;10.88;;;5.65;;
70806;SDS011;58882;52.170;5.386;2023-07-09T01:22:53;9.63;;;5.35;;
70806;SDS011;58882;52.170;5.386;2023-07-09T01:25:42;11.52;;;6.07;;
70806;SDS011;58882;52.170;5.386;2023-07-09T01:28:31;14.18;;;6.22;;
70806;SDS011;58882;52.170;5.386;2023-07-09T01:31:28;11.43;;;6.03;;
70806;SDS011;58882;52.170;5.386;2023-07-09T01:34:08;11.35;;;5.90;;
70806;SDS011;58882;52.170;5.386;2023-07-09T01:36:55;10.88;;;5.90;;
70806;SDS011;58882;52.170;5.386;2023-07-09T01:39:35;13.30;;;6.47;;
70806;SDS011;58882;52.170;5.386;2023-07-09T01:42:23;11.50;;;6.32;;
70806;SDS011;58882;52.170;5.386;2023-07-09T01:45:05;11.00;;;6.30;;
70806;SDS011;58882;52.170;5.386;2023-07-09T01:47:56;10.38;;;5.80;;
70806;SDS011;58882;52.170;5.386;2023-07-09T01:50:36;11.57;;;6.10;;
70806;SDS011;58882;52.170;5.386;2023-07-09T01:53:24;11.88;;;6.57;;
70806;SDS011;58882;52.170;5.386;2023-07-09T01:56:07;10.88;;;5.80;;
70806;SDS011;58882;52.170;5.386;2023-07-09T01:58:55;13.70;;;6.38;;
70806;SDS011;58882;52.170;5.386;2023-07-09T02:01:40;11.32;;;6.50;;
70806;SDS011;58882;52.170;5.386;2023-07-09T02:04:34;12.23;;;6.80;;
70806;SDS011;58882;52.170;5.386;2023-07-09T02:07:07;12.00;;;6.18;;
70806;SDS011;58882;52.170;5.386;2023-07-09T02:10:01;11.65;;;6.10;;
70806;SDS011;58882;52.170;5.386;2023-07-09T02:12:34;11.70;;;6.22;;
70806;SDS011;58882;52.170;5.386;2023-07-09T02:15:28;11.13;;;6.07;;
70806;SDS011;58882;52.170;5.386;2023-07-09T02:18:04;14.38;;;6.78;;
70806;SDS011;58882;52.170;5.386;2023-07-09T02:20:58;11.23;;;6.03;;
70806;SDS011;58882;52.170;5.386;2023-07-09T02:23:38;12.15;;;6.32;;
70806;SDS011;58882;52.170;5.386;2023-07-09T02:26:25;11.50;;;6.28;;
70806;SDS011;58882;52.170;5.386;2023-07-09T02:28:58;13.60;;;6.00;;
70806;SDS011;58882;52.170;5.386;2023-07-09T02:31:52;11.75;;;6.28;;
70806;SDS011;58882;52.170;5.386;2023-07-09T02:34:29;10.88;;;5.95;;
70806;SDS011;58882;52.170;5.386;2023-07-09T02:37:25;13.65;;;7.20;;
70806;SDS011;58882;52.170;5.386;2023-07-09T02:39:59;13.82;;;6.47;;
70806;SDS011;58882;52.170;5.386;2023-07-09T02:42:53;11.68;;;6.30;;
70806;SDS011;58882;52.170;5.386;2023-07-09T02:45:26;13.93;;;6.80;;
70806;SDS011;58882;52.170;5.386;2023-07-09T02:48:20;13.02;;;6.55;;
70806;SDS011;58882;52.170;5.386;2023-07-09T02:50:53;12.40;;;6.32;;
70806;SDS011;58882;52.170;5.386;2023-07-09T02:53:47;13.38;;;6.40;;
70806;SDS011;58882;52.170;5.386;2023-07-09T02:56:27;10.90;;;5.90;;
70806;SDS011;58882;52.170;5.386;2023-07-09T02:59:14;12.02;;;6.07;;
70806;SDS011;58882;52.170;5.386;2023-07-09T03:01:55;12.32;;;6.38;;
70806;SDS011;58882;52.170;5.386;2023-07-09T03:07:22;12.45;;;6.63;;
70806;SDS011;58882;52.170;5.386;2023-07-09T03:10:16;11.18;;;6.10;;
70806;SDS011;58882;52.170;5.386;2023-07-09T03:12:56;13.55;;;6.15;;
70806;SDS011;58882;52.170;5.386;2023-07-09T03:15:43;12.85;;;6.25;;
70806;SDS011;58882;52.170;5.386;2023-07-09T03:18:32;13.20;;;6.65;;
70806;SDS011;58882;52.170;5.386;2023-07-09T03:21:19;11.70;;;6.20;;
70806;SDS011;58882;52.170;5.386;2023-07-09T03:23:54;14.27;;;6.22;;
70806;SDS011;58882;52.170;5.386;2023-07-09T03:26:48;12.77;;;6.40;;
70806;SDS011;58882;52.170;5.386;2023-07-09T03:29:28;11.55;;;6.50;;
70806;SDS011;58882;52.170;5.386;2023-07-09T03:32:22;10.68;;;6.28;;
70806;SDS011;58882;52.170;5.386;2023-07-09T03:35:02;12.60;;;6.10;;
70806;SDS011;58882;52.170;5.386;2023-07-09T03:37:49;11.68;;;6.18;;
70806;SDS011;58882;52.170;5.386;2023-07-09T03:40:29;12.57;;;6.60;;
70806;SDS011;58882;52.170;5.386;2023-07-09T03:43:17;12.93;;;6.20;;
70806;SDS011;58882;52.170;5.386;2023-07-09T03:45:57;11.77;;;6.75;;
70806;SDS011;58882;52.170;5.386;2023-07-09T03:48:44;12.57;;;6.68;;
70806;SDS011;58882;52.170;5.386;2023-07-09T03:51:24;11.90;;;6.40;;
70806;SDS011;58882;52.170;5.386;2023-07-09T03:54:18;11.57;;;6.60;;
70806;SDS011;58882;52.170;5.386;2023-07-09T03:56:59;11.73;;;6.13;;
70806;SDS011;58882;52.170;5.386;2023-07-09T03:59:47;11.20;;;6.43;;
70806;SDS011;58882;52.170;5.386;2023-07-09T04:02:27;10.82;;;6.38;;
70806;SDS011;58882;52.170;5.386;2023-07-09T04:05:14;11.90;;;6.47;;
70806;SDS011;58882;52.170;5.386;2023-07-09T04:07:54;11.25;;;6.45;;
70806;SDS011;58882;52.170;5.386;2023-07-09T04:10:41;11.65;;;6.20;;
70806;SDS011;58882;52.170;5.386;2023-07-09T04:13:21;11.65;;;6.35;;
70806;SDS011;58882;52.170;5.386;2023-07-09T04:16:09;10.80;;;6.20;;
70806;SDS011;58882;52.170;5.386;2023-07-09T04:18:49;11.63;;;6.53;;
70806;SDS011;58882;52.170;5.386;2023-07-09T04:21:36;11.25;;;6.38;;
70806;SDS011;58882;52.170;5.386;2023-07-09T04:24:17;10.23;;;6.20;;
70806;SDS011;58882;52.170;5.386;2023-07-09T04:27:04;12.27;;;6.72;;
70806;SDS011;58882;52.170;5.386;2023-07-09T04:29:51;13.30;;;6.53;;
70806;SDS011;58882;52.170;5.386;2023-07-09T04:32:31;12.73;;;6.97;;
70806;SDS011;58882;52.170;5.386;2023-07-09T04:35:18;11.70;;;6.47;;
70806;SDS011;58882;52.170;5.386;2023-07-09T04:37:51;11.80;;;6.20;;
70806;SDS011;58882;52.170;5.386;2023-07-09T04:40:46;13.10;;;6.65;;
70806;SDS011;58882;52.170;5.386;2023-07-09T04:43:26;11.43;;;6.18;;
70806;SDS011;58882;52.170;5.386;2023-07-09T04:46:13;12.07;;;6.38;;
70806;SDS011;58882;52.170;5.386;2023-07-09T04:49:00;12.88;;;6.32;;
70806;SDS011;58882;52.170;5.386;2023-07-09T04:51:40;13.40;;;6.35;;
70806;SDS011;58882;52.170;5.386;2023-07-09T04:54:27;13.45;;;6.72;;
70806;SDS011;58882;52.170;5.386;2023-07-09T04:57:07;11.55;;;6.18;;
70806;SDS011;58882;52.170;5.386;2023-07-09T04:59:54;11.25;;;6.68;;
70806;SDS011;58882;52.170;5.386;2023-07-09T05:02:34;11.65;;;6.28;;
70806;SDS011;58882;52.170;5.386;2023-07-09T05:05:21;12.32;;;6.35;;
70806;SDS011;58882;52.170;5.386;2023-07-09T05:08:02;11.98;;;6.57;;
70806;SDS011;58882;52.170;5.386;2023-07-09T05:10:46;11.48;;;6.30;;
70806;SDS011;58882;52.170;5.386;2023-07-09T05:13:42;12.93;;;6.88;;
70806;SDS011;58882;52.170;5.386;2023-07-09T05:16:15;11.98;;;6.63;;
70806;SDS011;58882;52.170;5.386;2023-07-09T05:19:09;11.93;;;6.88;;
70806;SDS011;58882;52.170;5.386;2023-07-09T05:21:49;11.93;;;6.40;;
70806;SDS011;58882;52.170;5.386;2023-07-09T05:24:36;11.80;;;6.93;;
70806;SDS011;58882;52.170;5.386;2023-07-09T05:27:16;14.93;;;7.07;;
70806;SDS011;58882;52.170;5.386;2023-07-09T05:30:03;13.02;;;7.72;;
70806;SDS011;58882;52.170;5.386;2023-07-09T05:32:44;12.32;;;6.50;;
70806;SDS011;58882;52.170;5.386;2023-07-09T05:35:33;13.60;;;7.32;;
70806;SDS011;58882;52.170;5.386;2023-07-09T05:38:13;11.23;;;6.38;;
70806;SDS011;58882;52.170;5.386;2023-07-09T05:41:02;12.30;;;6.47;;
70806;SDS011;58882;52.170;5.386;2023-07-09T05:43:58;11.65;;;6.82;;
70806;SDS011;58882;52.170;5.386;2023-07-09T05:46:52;11.98;;;7.10;;
70806;SDS011;58882;52.170;5.386;2023-07-09T05:49:39;10.50;;;6.72;;
70806;SDS011;58882;52.170;5.386;2023-07-09T05:52:20;13.85;;;7.18;;
70806;SDS011;58882;52.170;5.386;2023-07-09T05:55:15;11.25;;;6.70;;
70806;SDS011;58882;52.170;5.386;2023-07-09T05:57:48;14.30;;;7.15;;
70806;SDS011;58882;52.170;5.386;2023-07-09T06:00:42;13.18;;;6.72;;
70806;SDS011;58882;52.170;5.386;2023-07-09T06:03:15;11.02;;;6.53;;
70806;SDS011;58882;52.170;5.386;2023-07-09T06:06:09;13.35;;;6.70;;
70806;SDS011;58882;52.170;5.386;2023-07-09T06:08:49;14.68;;;7.53;;
70806;SDS011;58882;52.170;5.386;2023-07-09T06:11:43;13.20;;;6.57;;
70806;SDS011;58882;52.170;5.386;2023-07-09T06:14:17;12.63;;;7.00;;
70806;SDS011;58882;52.170;5.386;2023-07-09T06:17:11;11.65;;;6.68;;
70806;SDS011;58882;52.170;5.386;2023-07-09T06:19:52;13.50;;;7.60;;
70806;SDS011;58882;52.170;5.386;2023-07-09T06:22:46;14.05;;;7.20;;
70806;SDS011;58882;52.170;5.386;2023-07-09T06:25:29;12.98;;;7.13;;
70806;SDS011;58882;52.170;5.386;2023-07-09T06:28:24;13.32;;;7.65;;
70806;SDS011;58882;52.170;5.386;2023-07-09T06:31:06;12.63;;;7.57;;
70806;SDS011;58882;52.170;5.386;2023-07-09T06:33:53;12.80;;;7.15;;
70806;SDS011;58882;52.170;5.386;2023-07-09T06:36:26;13.02;;;7.30;;
70806;SDS011;58882;52.170;5.386;2023-07-09T06:39:23;11.55;;;7.43;;
70806;SDS011;58882;52.170;5.386;2023-07-09T06:42:03;12.63;;;7.38;;
70806;SDS011;58882;52.170;5.386;2023-07-09T06:45:01;13.63;;;7.13;;
70806;SDS011;58882;52.170;5.386;2023-07-09T06:47:43;14.07;;;7.00;;
70806;SDS011;58882;52.170;5.386;2023-07-09T06:50:34;13.90;;;7.40;;
70806;SDS011;58882;52.170;5.386;2023-07-09T06:53:14;11.13;;;7.15;;
70806;SDS011;58882;52.170;5.386;2023-07-09T06:56:02;11.93;;;7.03;;
70806;SDS011;58882;52.170;5.386;2023-07-09T06:58:43;12.90;;;7.75;;
70806;SDS011;58882;52.170;5.386;2023-07-09T07:01:39;12.93;;;7.40;;
70806;SDS011;58882;52.170;5.386;2023-07-09T07:04:12;12.38;;;7.53;;
70806;SDS011;58882;52.170;5.386;2023-07-09T07:07:06;12.43;;;7.30;;
70806;SDS011;58882;52.170;5.386;2023-07-09T07:09:46;12.32;;;7.05;;
70806;SDS011;58882;52.170;5.386;2023-07-09T07:12:40;12.25;;;7.13;;
70806;SDS011;58882;52.170;5.386;2023-07-09T07:15:26;11.93;;;7.40;;
70806;SDS011;58882;52.170;5.386;2023-07-09T07:18:13;13.77;;;7.53;;
70806;SDS011;58882;52.170;5.386;2023-07-09T07:20:53;11.77;;;7.47;;
70806;SDS011;58882;52.170;5.386;2023-07-09T07:23:47;14.68;;;7.68;;
70806;SDS011;58882;52.170;5.386;2023-07-09T07:26:23;13.40;;;7.55;;
70806;SDS011;58882;52.170;5.386;2023-07-09T07:29:17;13.13;;;7.93;;
70806;SDS011;58882;52.170;5.386;2023-07-09T07:31:57;12.50;;;6.93;;
70806;SDS011;58882;52.170;5.386;2023-07-09T07:34:45;13.38;;;7.68;;
70806;SDS011;58882;52.170;5.386;2023-07-09T07:37:27;12.75;;;7.82;;
70806;SDS011;58882;52.170;5.386;2023-07-09T07:40:14;14.18;;;7.50;;
70806;SDS011;58882;52.170;5.386;2023-07-09T07:42:47;13.32;;;8.25;;
70806;SDS011;58882;52.170;5.386;2023-07-09T07:45:42;11.75;;;7.70;;
70806;SDS011;58882;52.170;5.386;2023-07-09T07:48:15;13.60;;;8.15;;
70806;SDS011;58882;52.170;5.386;2023-07-09T07:51:09;13.40;;;7.60;;
70806;SDS011;58882;52.170;5.386;2023-07-09T07:53:42;12.75;;;7.95;;
70806;SDS011;58882;52.170;5.386;2023-07-09T07:56:36;13.45;;;8.57;;
70806;SDS011;58882;52.170;5.386;2023-07-09T07:59:17;12.48;;;7.90;;
70806;SDS011;58882;52.170;5.386;2023-07-09T08:02:12;12.18;;;7.70;;
70806;SDS011;58882;52.170;5.386;2023-07-09T08:04:53;11.85;;;7.60;;
70806;SDS011;58882;52.170;5.386;2023-07-09T08:07:40;13.85;;;7.65;;
70806;SDS011;58882;52.170;5.386;2023-07-09T08:10:13;11.43;;;7.57;;
70806;SDS011;58882;52.170;5.386;2023-07-09T08:13:07;12.68;;;7.38;;
70806;SDS011;58882;52.170;5.386;2023-07-09T08:15:47;13.55;;;7.25;;
70806;SDS011;58882;52.170;5.386;2023-07-09T08:18:41;13.93;;;7.55;;
70806;SDS011;58882;52.170;5.386;2023-07-09T08:21:35;11.30;;;7.13;;
70806;SDS011;58882;52.170;5.386;2023-07-09T08:24:15;12.48;;;7.68;;
70806;SDS011;58882;52.170;5.386;2023-07-09T08:27:02;13.15;;;7.13;;
70806;SDS011;58882;52.170;5.386;2023-07-09T08:29:42;11.80;;;7.05;;
70806;SDS011;58882;52.170;5.386;2023-07-09T08:32:29;10.65;;;6.72;;
70806;SDS011;58882;52.170;5.386;2023-07-09T08:35:09;12.63;;;6.72;;
70806;SDS011;58882;52.170;5.386;2023-07-09T08:37:59;13.57;;;7.07;;
70806;SDS011;58882;52.170;5.386;2023-07-09T08:40:40;11.02;;;6.72;;
70806;SDS011;58882;52.170;5.386;2023-07-09T08:43:46;11.70;;;6.60;;
70806;SDS011;58882;52.170;5.386;2023-07-09T08:49:50;10.52;;;6.80;;
70806;SDS011;58882;52.170;5.386;2023-07-09T08:52:37;13.50;;;7.25;;
70806;SDS011;58882;52.170;5.386;2023-07-09T08:55:29;12.02;;;6.65;;
70806;SDS011;58882;52.170;5.386;2023-07-09T08:58:21;13.48;;;7.13;;
70806;SDS011;58882;52.170;5.386;2023-07-09T09:01:17;11.57;;;6.75;;
70806;SDS011;58882;52.170;5.386;2023-07-09T09:04:03;12.15;;;6.97;;
70806;SDS011;58882;52.170;5.386;2023-07-09T09:07:00;11.98;;;6.68;;
70806;SDS011;58882;52.170;5.386;2023-07-09T09:09:57;12.82;;;6.70;;
70806;SDS011;58882;52.170;5.386;2023-07-09T09:13:02;11.63;;;6.65;;
70806;SDS011;58882;52.170;5.386;2023-07-09T09:15:49;11.20;;;6.70;;
70806;SDS011;58882;52.170;5.386;2023-07-09T09:18:44;11.07;;;7.13;;
70806;SDS011;58882;52.170;5.386;2023-07-09T09:21:28;11.30;;;7.03;;
70806;SDS011;58882;52.170;5.386;2023-07-09T09:24:31;11.20;;;7.15;;
70806;SDS011;58882;52.170;5.386;2023-07-09T09:27:30;11.43;;;6.75;;
70806;SDS011;58882;52.170;5.386;2023-07-09T09:30:21;10.98;;;6.85;;
70806;SDS011;58882;52.170;5.386;2023-07-09T09:33:06;12.68;;;7.57;;
70806;SDS011;58882;52.170;5.386;2023-07-09T09:36:00;10.98;;;6.90;;
70806;SDS011;58882;52.170;5.386;2023-07-09T09:38:42;11.82;;;6.75;;
70806;SDS011;58882;52.170;5.386;2023-07-09T09:41:37;10.35;;;6.65;;
70806;SDS011;58882;52.170;5.386;2023-07-09T09:44:17;11.20;;;6.80;;
70806;SDS011;58882;52.170;5.386;2023-07-09T09:47:13;13.77;;;7.05;;
70806;SDS011;58882;52.170;5.386;2023-07-09T09:50:02;10.77;;;6.25;;
70806;SDS011;58882;52.170;5.386;2023-07-09T09:52:43;11.43;;;6.53;;
70806;SDS011;58882;52.170;5.386;2023-07-09T09:55:39;12.13;;;6.47;;
70806;SDS011;58882;52.170;5.386;2023-07-09T09:58:14;13.15;;;7.18;;
70806;SDS011;58882;52.170;5.386;2023-07-09T10:01:17;12.93;;;7.10;;
70806;SDS011;58882;52.170;5.386;2023-07-09T10:03:51;12.48;;;6.60;;
70806;SDS011;58882;52.170;5.386;2023-07-09T10:06:50;10.90;;;6.68;;
70806;SDS011;58882;52.170;5.386;2023-07-09T10:12:50;11.15;;;7.30;;
70806;SDS011;58882;52.170;5.386;2023-07-09T10:15:34;10.45;;;6.75;;
70806;SDS011;58882;52.170;5.386;2023-07-09T10:24:35;11.57;;;6.95;;
70806;SDS011;58882;52.170;5.386;2023-07-09T10:31:11;11.30;;;7.22;;
70806;SDS011;58882;52.170;5.386;2023-07-09T10:34:01;11.02;;;7.18;;
70806;SDS011;58882;52.170;5.386;2023-07-09T10:40:33;11.50;;;7.18;;
70806;SDS011;58882;52.170;5.386;2023-07-09T10:43:38;11.60;;;7.00;;
70806;SDS011;58882;52.170;5.386;2023-07-09T10:46:23;11.32;;;6.63;;
70806;SDS011;58882;52.170;5.386;2023-07-09T10:49:19;10.23;;;6.82;;
70806;SDS011;58882;52.170;5.386;2023-07-09T10:52:34;10.60;;;6.88;;
70806;SDS011;58882;52.170;5.386;2023-07-09T10:55:25;11.50;;;7.18;;
70806;SDS011;58882;52.170;5.386;2023-07-09T11:01:37;12.52;;;7.30;;
70806;SDS011;58882;52.170;5.386;2023-07-09T11:04:41;12.88;;;7.32;;
70806;SDS011;58882;52.170;5.386;2023-07-09T11:07:32;10.70;;;6.88;;
70806;SDS011;58882;52.170;5.386;2023-07-09T11:10:32;10.95;;;7.47;;
70806;SDS011;58882;52.170;5.386;2023-07-09T11:13:30;12.35;;;7.35;;
70806;SDS011;58882;52.170;5.386;2023-07-09T11:16:36;10.98;;;7.18;;
70806;SDS011;58882;52.170;5.386;2023-07-09T11:19:19;13.15;;;7.63;;
70806;SDS011;58882;52.170;5.386;2023-07-09T11:22:16;12.35;;;7.82;;
70806;SDS011;58882;52.170;5.386;2023-07-09T11:25:03;12.32;;;7.57;;
70806;SDS011;58882;52.170;5.386;2023-07-09T11:28:04;12.90;;;7.93;;
70806;SDS011;58882;52.170;5.386;2023-07-09T11:30:46;13.13;;;8.27;;
70806;SDS011;58882;52.170;5.386;2023-07-09T11:33:46;11.77;;;7.57;;
70806;SDS011;58882;52.170;5.386;2023-07-09T11:36:46;11.43;;;7.72;;
70806;SDS011;58882;52.170;5.386;2023-07-09T11:45:14;13.93;;;8.60;;
70806;SDS011;58882;52.170;5.386;2023-07-09T11:51:21;12.52;;;8.50;;
70806;SDS011;58882;52.170;5.386;2023-07-09T11:54:11;13.18;;;7.85;;
70806;SDS011;58882;52.170;5.386;2023-07-09T11:56:59;12.43;;;7.88;;
70806;SDS011;58882;52.170;5.386;2023-07-09T11:59:40;13.10;;;8.43;;
70806;SDS011;58882;52.170;5.386;2023-07-09T12:02:30;14.52;;;8.98;;
70806;SDS011;58882;52.170;5.386;2023-07-09T12:05:14;12.13;;;7.75;;
70806;SDS011;58882;52.170;5.386;2023-07-09T12:08:07;11.48;;;7.68;;
70806;SDS011;58882;52.170;5.386;2023-07-09T12:10:47;11.98;;;7.93;;
70806;SDS011;58882;52.170;5.386;2023-07-09T12:13:37;12.43;;;8.30;;
70806;SDS011;58882;52.170;5.386;2023-07-09T12:16:23;12.65;;;7.88;;
70806;SDS011;58882;52.170;5.386;2023-07-09T12:19:15;12.80;;;8.20;;
70806;SDS011;58882;52.170;5.386;2023-07-09T12:21:58;11.88;;;7.75;;
70806;SDS011;58882;52.170;5.386;2023-07-09T12:24:46;12.00;;;7.82;;
70806;SDS011;58882;52.170;5.386;2023-07-09T12:27:31;14.02;;;8.05;;
70806;SDS011;58882;52.170;5.386;2023-07-09T12:30:25;12.82;;;7.22;;
70806;SDS011;58882;52.170;5.386;2023-07-09T12:33:06;12.38;;;7.78;;
70806;SDS011;58882;52.170;5.386;2023-07-09T12:36:03;11.82;;;7.47;;
70806;SDS011;58882;52.170;5.386;2023-07-09T12:38:44;13.32;;;7.13;;
70806;SDS011;58882;52.170;5.386;2023-07-09T12:41:42;13.63;;;7.47;;
70806;SDS011;58882;52.170;5.386;2023-07-09T12:44:18;13.10;;;7.22;;
70806;SDS011;58882;52.170;5.386;2023-07-09T12:47:14;11.52;;;7.13;;
70806;SDS011;58882;52.170;5.386;2023-07-09T12:49:48;11.43;;;7.32;;
70806;SDS011;58882;52.170;5.386;2023-07-09T12:52:49;10.75;;;7.03;;
70806;SDS011;58882;52.170;5.386;2023-07-09T12:55:24;10.55;;;7.32;;
70806;SDS011;58882;52.170;5.386;2023-07-09T12:58:23;12.02;;;7.20;;
70806;SDS011;58882;52.170;5.386;2023-07-09T13:01:21;11.70;;;6.97;;
70806;SDS011;58882;52.170;5.386;2023-07-09T13:04:07;10.30;;;6.60;;
70806;SDS011;58882;52.170;5.386;2023-07-09T13:07:04;10.95;;;6.90;;
70806;SDS011;58882;52.170;5.386;2023-07-09T13:10:11;11.25;;;6.80;;
70806;SDS011;58882;52.170;5.386;2023-07-09T13:13:05;12.93;;;7.25;;
70806;SDS011;58882;52.170;5.386;2023-07-09T13:15:43;10.18;;;6.65;;
70806;SDS011;58882;52.170;5.386;2023-07-09T13:18:43;10.85;;;7.57;;
70806;SDS011;58882;52.170;5.386;2023-07-09T13:21:17;11.15;;;6.63;;
70806;SDS011;58882;52.170;5.386;2023-07-09T13:24:13;10.63;;;6.88;;
70806;SDS011;58882;52.170;5.386;2023-07-09T13:26:49;10.57;;;6.63;;
70806;SDS011;58882;52.170;5.386;2023-07-09T13:29:45;11.48;;;6.63;;
70806;SDS011;58882;52.170;5.386;2023-07-09T13:32:19;10.98;;;6.82;;
70806;SDS011;58882;52.170;5.386;2023-07-09T13:35:14;10.23;;;6.30;;
70806;SDS011;58882;52.170;5.386;2023-07-09T13:37:49;13.88;;;6.88;;
70806;SDS011;58882;52.170;5.386;2023-07-09T13:40:44;10.40;;;6.20;;
70806;SDS011;58882;52.170;5.386;2023-07-09T13:43:22;11.38;;;6.18;;
70806;SDS011;58882;52.170;5.386;2023-07-09T13:46:20;11.30;;;6.80;;
70806;SDS011;58882;52.170;5.386;2023-07-09T13:49:11;10.25;;;6.63;;
70806;SDS011;58882;52.170;5.386;2023-07-09T13:52:14;11.52;;;6.00;;
70806;SDS011;58882;52.170;5.386;2023-07-09T13:54:55;11.80;;;6.72;;
70806;SDS011;58882;52.170;5.386;2023-07-09T13:57:49;11.10;;;6.55;;
70806;SDS011;58882;52.170;5.386;2023-07-09T14:00:30;11.48;;;6.28;;
70806;SDS011;58882;52.170;5.386;2023-07-09T14:06:03;10.35;;;6.00;;
70806;SDS011;58882;52.170;5.386;2023-07-09T14:08:50;10.82;;;6.15;;
70806;SDS011;58882;52.170;5.386;2023-07-09T14:11:30;10.65;;;5.88;;
70806;SDS011;58882;52.170;5.386;2023-07-09T14:14:18;9.13;;;6.13;;
70806;SDS011;58882;52.170;5.386;2023-07-09T14:17:03;10.05;;;5.88;;
70806;SDS011;58882;52.170;5.386;2023-07-09T14:19:51;10.15;;;6.13;;
70806;SDS011;58882;52.170;5.386;2023-07-09T14:25:23;9.50;;;5.57;;
70806;SDS011;58882;52.170;5.386;2023-07-09T14:28:07;9.07;;;5.60;;
70806;SDS011;58882;52.170;5.386;2023-07-09T14:31:00;9.38;;;5.38;;
70806;SDS011;58882;52.170;5.386;2023-07-09T14:33:41;10.65;;;5.95;;
70806;SDS011;58882;52.170;5.386;2023-07-09T14:36:28;11.00;;;5.75;;
70806;SDS011;58882;52.170;5.386;2023-07-09T14:39:11;9.60;;;5.50;;
70806;SDS011;58882;52.170;5.386;2023-07-09T14:41:58;10.43;;;5.60;;
70806;SDS011;58882;52.170;5.386;2023-07-09T14:44:39;9.98;;;5.28;;
70806;SDS011;58882;52.170;5.386;2023-07-09T14:47:26;9.48;;;5.28;;
70806;SDS011;58882;52.170;5.386;2023-07-09T14:50:07;9.05;;;5.00;;
70806;SDS011;58882;52.170;5.386;2023-07-09T14:53:02;10.30;;;5.00;;
70806;SDS011;58882;52.170;5.386;2023-07-09T14:55:42;10.13;;;5.22;;
70806;SDS011;58882;52.170;5.386;2023-07-09T14:58:37;9.85;;;5.30;;
70806;SDS011;58882;52.170;5.386;2023-07-09T15:01:17;8.40;;;4.72;;
70806;SDS011;58882;52.170;5.386;2023-07-09T15:06:59;9.93;;;5.03;;
70806;SDS011;58882;52.170;5.386;2023-07-09T15:09:47;8.57;;;4.72;;
70806;SDS011;58882;52.170;5.386;2023-07-09T15:12:28;9.07;;;4.85;;
70806;SDS011;58882;52.170;5.386;2023-07-09T15:15:31;8.85;;;4.97;;
70806;SDS011;58882;52.170;5.386;2023-07-09T15:18:12;10.10;;;4.80;;
70806;SDS011;58882;52.170;5.386;2023-07-09T15:21:08;8.77;;;4.50;;
70806;SDS011;58882;52.170;5.386;2023-07-09T15:23:49;9.02;;;4.82;;
70806;SDS011;58882;52.170;5.386;2023-07-09T15:26:36;9.77;;;4.50;;
70806;SDS011;58882;52.170;5.386;2023-07-09T15:29:16;9.07;;;4.60;;
70806;SDS011;58882;52.170;5.386;2023-07-09T15:32:03;8.32;;;4.43;;
70806;SDS011;58882;52.170;5.386;2023-07-09T15:34:44;10.43;;;4.50;;
70806;SDS011;58882;52.170;5.386;2023-07-09T15:37:31;9.38;;;4.45;;
70806;SDS011;58882;52.170;5.386;2023-07-09T15:40:15;9.60;;;4.50;;
70806;SDS011;58882;52.170;5.386;2023-07-09T15:43:11;9.35;;;4.60;;
70806;SDS011;58882;52.170;5.386;2023-07-09T15:45:55;8.98;;;4.55;;
70806;SDS011;58882;52.170;5.386;2023-07-09T15:48:42;9.95;;;4.70;;
70806;SDS011;58882;52.170;5.386;2023-07-09T15:51:30;9.10;;;4.45;;
70806;SDS011;58882;52.170;5.386;2023-07-09T15:54:13;10.65;;;4.50;;
70806;SDS011;58882;52.170;5.386;2023-07-09T15:57:05;11.00;;;4.70;;
70806;SDS011;58882;52.170;5.386;2023-07-09T15:59:45;9.35;;;4.45;;
70806;SDS011;58882;52.170;5.386;2023-07-09T16:02:32;7.63;;;4.07;;
70806;SDS011;58882;52.170;5.386;2023-07-09T16:05:20;9.25;;;4.28;;
70806;SDS011;58882;52.170;5.386;2023-07-09T16:08:23;9.07;;;4.10;;
70806;SDS011;58882;52.170;5.386;2023-07-09T16:10:56;7.95;;;4.15;;
70806;SDS011;58882;52.170;5.386;2023-07-09T16:13:51;8.40;;;4.05;;
70806;SDS011;58882;52.170;5.386;2023-07-09T16:16:32;9.50;;;4.35;;
70806;SDS011;58882;52.170;5.386;2023-07-09T16:19:20;9.68;;;4.43;;
70806;SDS011;58882;52.170;5.386;2023-07-09T16:21:56;9.73;;;4.45;;
70806;SDS011;58882;52.170;5.386;2023-07-09T16:24:53;9.45;;;4.57;;
70806;SDS011;58882;52.170;5.386;2023-07-09T16:27:33;9.30;;;4.38;;
70806;SDS011;58882;52.170;5.386;2023-07-09T16:30:21;9.65;;;4.40;;
70806;SDS011;58882;52.170;5.386;2023-07-09T16:33:03;7.70;;;4.55;;
70806;SDS011;58882;52.170;5.386;2023-07-09T16:35:50;8.65;;;4.60;;
70806;SDS011;58882;52.170;5.386;2023-07-09T16:38:32;8.60;;;4.38;;
70806;SDS011;58882;52.170;5.386;2023-07-09T16:41:19;8.95;;;4.15;;
70806;SDS011;58882;52.170;5.386;2023-07-09T16:43:59;8.82;;;4.03;;
70806;SDS011;58882;52.170;5.386;2023-07-09T16:46:53;9.65;;;3.90;;
70806;SDS011;58882;52.170;5.386;2023-07-09T16:49:37;8.43;;;4.20;;
70806;SDS011;58882;52.170;5.386;2023-07-09T16:52:33;8.77;;;4.18;;
70806;SDS011;58882;52.170;5.386;2023-07-09T16:55:06;8.23;;;4.20;;
70806;SDS011;58882;52.170;5.386;2023-07-09T16:58:10;8.55;;;4.45;;
70806;SDS011;58882;52.170;5.386;2023-07-09T17:01:01;8.32;;;4.18;;
70806;SDS011;58882;52.170;5.386;2023-07-09T17:03:57;7.63;;;3.78;;
70806;SDS011;58882;52.170;5.386;2023-07-09T17:06:37;9.38;;;4.18;;
70806;SDS011;58882;52.170;5.386;2023-07-09T17:09:34;7.88;;;3.92;;
70806;SDS011;58882;52.170;5.386;2023-07-09T17:12:08;8.00;;;4.15;;
70806;SDS011;58882;52.170;5.386;2023-07-09T17:15:21;8.05;;;3.85;;
70806;SDS011;58882;52.170;5.386;2023-07-09T17:18:11;8.13;;;3.88;;